Sibel J — 5IM270 — position and weather

sailwx.info

Track history (hours):
 
Tides and Currents Weather Stations Pressure Air Temp Water Temp Dewpoint Dewpoint Depression Visibility Wind Speed Wind Dir Waves Ship Positions

Sibel J

Last reported at 2017-Oct-15 23:29 UTC. Time now 2017-Oct-18 20:26 UTC.
Position N 43°40' E 029°27'.

Length 100 m; draft 4.6 m.

Type: Cargo ship. MMSI: 677017000.

Date/timePositionNaut miles runAvg speedWind from/ knotsBaromVisibWave heightAir tempDewpointWater temp
2017-Oct-15 23:29N 43°40' E 029°27'11 8.8
2017-Oct-15 22:12N 43°51' E 029°30'3 8.9
2017-Oct-15 21:54N 43°54' E 029°31'3 8.9
2017-Oct-15 21:30N 43°57' E 029°32'4 8.9
2017-Oct-15 21:00N 44°01' E 029°33'4 8.5
2017-Oct-15 20:31N 44°06' E 029°34'4 8.4
2017-Oct-15 20:00N 44°10' E 029°35'4 8.6
2017-Oct-15 19:30N 44°14' E 029°36'4 8.6
2017-Oct-15 19:00N 44°18' E 029°38'  
2017-Oct-09 15:02N 44°19' E 029°29'0 8.5
2017-Oct-09 15:00N 44°19' E 029°29'4 8.6
2017-Oct-09 14:30N 44°16' E 029°25'4 8.8
2017-Oct-09 14:00N 44°12' E 029°21'4 8.5
2017-Oct-09 13:30N 44°09' E 029°18'6 8.3
2017-Oct-09 12:48N 44°04' E 029°14'2 8.1
2017-Oct-09 12:30N 44°02' E 029°12'4 8.4
2017-Oct-09 12:00N 43°58' E 029°09'4 8.8
2017-Oct-09 11:30N 43°54' E 029°06'4 8.5
2017-Oct-09 11:00N 43°51' E 029°02'4 8.4
2017-Oct-09 10:30N 43°47' E 028°59'4 8.3
2017-Oct-09 10:00N 43°44' E 028°56'4 8.3
2017-Oct-09 09:30N 43°40' E 028°53'4 8.4
2017-Oct-09 09:00N 43°37' E 028°49'4 8.6
2017-Oct-09 08:30N 43°33' E 028°46'  
2017-Oct-07 00:18N 40°59' E 028°60'3 7.1
2017-Oct-06 23:56N 40°56' E 028°60'11 3.8
2017-Oct-06 21:08N 40°48' E 028°50'0 1.4
2017-Oct-06 21:00N 40°48' E 028°51'3 5.3
2017-Oct-06 20:28N 40°46' E 028°49'  
Track history (hours):
 
Tides and Currents Weather Stations Pressure Air Temp Water Temp Dewpoint Dewpoint Depression Visibility Wind Speed Wind Dir Waves Ship Positions

Sibel J

Last reported at 2017-Oct-15 23:29 UTC. Time now 2017-Oct-18 20:26 UTC.
Position N 43°40' E 029°27'.

Length 100 m; draft 4.6 m.

Type: Cargo ship. MMSI: 677017000.

Date/timePositionNaut miles runAvg speedWind from/ knotsBaromVisibWave heightAir tempDewpointWater temp
2017-Oct-15 23:29N 43°40' E 029°27'11 8.8
2017-Oct-15 22:12N 43°51' E 029°30'3 8.9
2017-Oct-15 21:54N 43°54' E 029°31'3 8.9
2017-Oct-15 21:30N 43°57' E 029°32'4 8.9
2017-Oct-15 21:00N 44°01' E 029°33'4 8.5
2017-Oct-15 20:31N 44°06' E 029°34'4 8.4
2017-Oct-15 20:00N 44°10' E 029°35'4 8.6
2017-Oct-15 19:30N 44°14' E 029°36'4 8.6
2017-Oct-15 19:00N 44°18' E 029°38'  
2017-Oct-09 15:02N 44°19' E 029°29'0 8.5
2017-Oct-09 15:00N 44°19' E 029°29'4 8.6
2017-Oct-09 14:30N 44°16' E 029°25'4 8.8
2017-Oct-09 14:00N 44°12' E 029°21'4 8.5
2017-Oct-09 13:30N 44°09' E 029°18'6 8.3
2017-Oct-09 12:48N 44°04' E 029°14'2 8.1
2017-Oct-09 12:30N 44°02' E 029°12'4 8.4
2017-Oct-09 12:00N 43°58' E 029°09'4 8.8
2017-Oct-09 11:30N 43°54' E 029°06'4 8.5
2017-Oct-09 11:00N 43°51' E 029°02'4 8.4
2017-Oct-09 10:30N 43°47' E 028°59'4 8.3
2017-Oct-09 10:00N 43°44' E 028°56'4 8.3
2017-Oct-09 09:30N 43°40' E 028°53'4 8.4
2017-Oct-09 09:00N 43°37' E 028°49'4 8.6
2017-Oct-09 08:30N 43°33' E 028°46'  
2017-Oct-07 00:18N 40°59' E 028°60'3 7.1
2017-Oct-06 23:56N 40°56' E 028°60'11 3.8
2017-Oct-06 21:08N 40°48' E 028°50'0 1.4
2017-Oct-06 21:00N 40°48' E 028°51'3 5.3
2017-Oct-06 20:28N 40°46' E 028°49'  

Dump ship's entire track history